sensor_id;sensor_type;location;lat;lon;timestamp;temperature;humidity
19192;DHT22;9728;48.194;16.346;2023-07-29T00:04:28;30.00;53.60
19192;DHT22;9728;48.194;16.346;2023-07-29T00:09:33;30.00;53.60
19192;DHT22;9728;48.194;16.346;2023-07-29T00:14:36;30.00;53.80
19192;DHT22;9728;48.194;16.346;2023-07-29T00:19:39;30.00;53.80
19192;DHT22;9728;48.194;16.346;2023-07-29T00:24:44;29.90;53.90
19192;DHT22;9728;48.194;16.346;2023-07-29T00:29:48;29.90;54.00
19192;DHT22;9728;48.194;16.346;2023-07-29T00:34:51;30.00;54.00
19192;DHT22;9728;48.194;16.346;2023-07-29T00:39:57;29.90;54.00
19192;DHT22;9728;48.194;16.346;2023-07-29T00:45:01;29.90;54.10
19192;DHT22;9728;48.194;16.346;2023-07-29T00:50:05;29.90;54.00
19192;DHT22;9728;48.194;16.346;2023-07-29T00:55:11;29.90;54.10
19192;DHT22;9728;48.194;16.346;2023-07-29T01:00:14;29.90;54.20
19192;DHT22;9728;48.194;16.346;2023-07-29T01:05:18;29.90;54.20
19192;DHT22;9728;48.194;16.346;2023-07-29T01:10:32;29.90;54.20
19192;DHT22;9728;48.194;16.346;2023-07-29T01:15:46;29.90;54.90
19192;DHT22;9728;48.194;16.346;2023-07-29T01:20:54;29.90;54.60
19192;DHT22;9728;48.194;16.346;2023-07-29T01:25:59;29.80;54.40
19192;DHT22;9728;48.194;16.346;2023-07-29T01:31:09;29.80;54.40
19192;DHT22;9728;48.194;16.346;2023-07-29T01:36:18;29.80;54.70
19192;DHT22;9728;48.194;16.346;2023-07-29T01:41:26;29.80;54.70
19192;DHT22;9728;48.194;16.346;2023-07-29T01:46:34;29.80;54.70
19192;DHT22;9728;48.194;16.346;2023-07-29T01:51:38;29.70;54.80
19192;DHT22;9728;48.194;16.346;2023-07-29T01:56:43;29.70;54.60
19192;DHT22;9728;48.194;16.346;2023-07-29T02:01:46;29.70;54.80
19192;DHT22;9728;48.194;16.346;2023-07-29T02:06:50;29.50;54.80
19192;DHT22;9728;48.194;16.346;2023-07-29T02:11:55;29.50;55.10
19192;DHT22;9728;48.194;16.346;2023-07-29T02:16:59;29.40;55.20
19192;DHT22;9728;48.194;16.346;2023-07-29T02:22:03;29.30;55.10
19192;DHT22;9728;48.194;16.346;2023-07-29T02:27:08;29.20;55.10
19192;DHT22;9728;48.194;16.346;2023-07-29T02:32:11;29.20;55.30
19192;DHT22;9728;48.194;16.346;2023-07-29T02:37:15;29.20;55.30
19192;DHT22;9728;48.194;16.346;2023-07-29T02:42:20;29.20;55.30
19192;DHT22;9728;48.194;16.346;2023-07-29T02:47:24;29.20;55.30
19192;DHT22;9728;48.194;16.346;2023-07-29T02:52:27;29.20;55.00
19192;DHT22;9728;48.194;16.346;2023-07-29T02:57:32;29.20;54.80
19192;DHT22;9728;48.194;16.346;2023-07-29T03:02:36;29.10;54.70
19192;DHT22;9728;48.194;16.346;2023-07-29T03:07:39;29.10;54.70
19192;DHT22;9728;48.194;16.346;2023-07-29T03:12:44;29.00;54.70
19192;DHT22;9728;48.194;16.346;2023-07-29T03:17:49;28.90;54.70
19192;DHT22;9728;48.194;16.346;2023-07-29T03:22:52;28.90;54.60
19192;DHT22;9728;48.194;16.346;2023-07-29T03:27:57;28.90;54.60
19192;DHT22;9728;48.194;16.346;2023-07-29T03:33:01;28.90;54.70
19192;DHT22;9728;48.194;16.346;2023-07-29T03:38:06;28.90;54.60
19192;DHT22;9728;48.194;16.346;2023-07-29T03:43:11;28.80;54.70
19192;DHT22;9728;48.194;16.346;2023-07-29T03:48:16;28.80;54.80
19192;DHT22;9728;48.194;16.346;2023-07-29T03:53:19;28.70;54.80
19192;DHT22;9728;48.194;16.346;2023-07-29T03:58:24;28.80;54.90
19192;DHT22;9728;48.194;16.346;2023-07-29T04:03:28;28.70;55.00
19192;DHT22;9728;48.194;16.346;2023-07-29T04:08:31;28.80;54.90
19192;DHT22;9728;48.194;16.346;2023-07-29T04:13:37;28.80;55.00
19192;DHT22;9728;48.194;16.346;2023-07-29T04:18:40;28.80;54.90
19192;DHT22;9728;48.194;16.346;2023-07-29T04:23:44;28.90;54.90
19192;DHT22;9728;48.194;16.346;2023-07-29T04:28:48;28.90;55.00
19192;DHT22;9728;48.194;16.346;2023-07-29T04:33:52;28.90;55.00
19192;DHT22;9728;48.194;16.346;2023-07-29T04:38:55;29.00;55.10
19192;DHT22;9728;48.194;16.346;2023-07-29T04:44:00;29.00;55.10
19192;DHT22;9728;48.194;16.346;2023-07-29T04:49:03;29.00;55.10
19192;DHT22;9728;48.194;16.346;2023-07-29T04:54:07;29.00;55.10
19192;DHT22;9728;48.194;16.346;2023-07-29T04:59:12;29.00;55.10
19192;DHT22;9728;48.194;16.346;2023-07-29T05:04:16;29.00;55.10
19192;DHT22;9728;48.194;16.346;2023-07-29T05:09:19;29.00;55.10
19192;DHT22;9728;48.194;16.346;2023-07-29T05:14:24;29.00;55.10
19192;DHT22;9728;48.194;16.346;2023-07-29T05:19:29;29.00;55.20
19192;DHT22;9728;48.194;16.346;2023-07-29T05:24:33;29.10;55.20
19192;DHT22;9728;48.194;16.346;2023-07-29T05:29:38;29.10;55.10
19192;DHT22;9728;48.194;16.346;2023-07-29T05:34:41;29.10;55.20
19192;DHT22;9728;48.194;16.346;2023-07-29T05:39:45;29.10;55.20
19192;DHT22;9728;48.194;16.346;2023-07-29T05:44:50;29.10;55.20
19192;DHT22;9728;48.194;16.346;2023-07-29T05:49:55;29.20;55.40
19192;DHT22;9728;48.194;16.346;2023-07-29T05:54:58;29.20;55.30
19192;DHT22;9728;48.194;16.346;2023-07-29T06:00:04;29.20;55.30
19192;DHT22;9728;48.194;16.346;2023-07-29T06:05:13;29.20;55.30
19192;DHT22;9728;48.194;16.346;2023-07-29T06:10:17;29.30;55.40
19192;DHT22;9728;48.194;16.346;2023-07-29T06:15:22;29.30;55.40
19192;DHT22;9728;48.194;16.346;2023-07-29T06:20:27;29.30;55.40
19192;DHT22;9728;48.194;16.346;2023-07-29T06:25:30;29.30;55.40
19192;DHT22;9728;48.194;16.346;2023-07-29T06:30:35;29.40;55.40
19192;DHT22;9728;48.194;16.346;2023-07-29T06:35:39;29.40;55.50
19192;DHT22;9728;48.194;16.346;2023-07-29T06:40:42;29.40;55.40
19192;DHT22;9728;48.194;16.346;2023-07-29T06:45:47;29.50;55.50
19192;DHT22;9728;48.194;16.346;2023-07-29T06:50:51;29.50;55.50
19192;DHT22;9728;48.194;16.346;2023-07-29T06:55:54;29.60;55.50
19192;DHT22;9728;48.194;16.346;2023-07-29T07:00:59;29.70;55.50
19192;DHT22;9728;48.194;16.346;2023-07-29T07:06:03;29.70;55.40
19192;DHT22;9728;48.194;16.346;2023-07-29T07:11:09;29.70;55.40
19192;DHT22;9728;48.194;16.346;2023-07-29T07:16:14;29.80;55.40
19192;DHT22;9728;48.194;16.346;2023-07-29T07:21:18;29.80;55.50
19192;DHT22;9728;48.194;16.346;2023-07-29T07:26:21;29.90;55.50
19192;DHT22;9728;48.194;16.346;2023-07-29T07:31:26;29.80;55.40
19192;DHT22;9728;48.194;16.346;2023-07-29T07:36:30;29.80;55.50
19192;DHT22;9728;48.194;16.346;2023-07-29T07:41:33;29.90;55.70
19192;DHT22;9728;48.194;16.346;2023-07-29T07:46:38;30.00;55.70
19192;DHT22;9728;48.194;16.346;2023-07-29T07:51:43;30.00;55.70
19192;DHT22;9728;48.194;16.346;2023-07-29T07:56:49;30.20;55.60
19192;DHT22;9728;48.194;16.346;2023-07-29T08:01:53;30.30;55.50
19192;DHT22;9728;48.194;16.346;2023-07-29T08:06:57;30.40;55.30
19192;DHT22;9728;48.194;16.346;2023-07-29T08:12:02;30.50;55.20
19192;DHT22;9728;48.194;16.346;2023-07-29T08:17:07;30.60;55.10
19192;DHT22;9728;48.194;16.346;2023-07-29T08:22:11;30.80;55.00
19192;DHT22;9728;48.194;16.346;2023-07-29T08:27:14;30.90;54.80
19192;DHT22;9728;48.194;16.346;2023-07-29T08:32:19;31.10;54.50
19192;DHT22;9728;48.194;16.346;2023-07-29T08:37:22;31.30;54.30
19192;DHT22;9728;48.194;16.346;2023-07-29T08:42:29;31.40;54.10
19192;DHT22;9728;48.194;16.346;2023-07-29T08:47:35;31.60;53.80
19192;DHT22;9728;48.194;16.346;2023-07-29T08:52:39;31.70;53.60
19192;DHT22;9728;48.194;16.346;2023-07-29T08:57:44;31.80;53.60
19192;DHT22;9728;48.194;16.346;2023-07-29T09:02:50;32.00;53.50
19192;DHT22;9728;48.194;16.346;2023-07-29T09:07:55;32.10;53.40
19192;DHT22;9728;48.194;16.346;2023-07-29T09:12:59;32.30;53.10
19192;DHT22;9728;48.194;16.346;2023-07-29T09:18:16;32.40;53.10
19192;DHT22;9728;48.194;16.346;2023-07-29T09:23:19;32.60;52.80
19192;DHT22;9728;48.194;16.346;2023-07-29T09:28:23;32.80;52.90
19192;DHT22;9728;48.194;16.346;2023-07-29T09:33:28;33.00;52.60
19192;DHT22;9728;48.194;16.346;2023-07-29T09:38:34;33.10;52.40
19192;DHT22;9728;48.194;16.346;2023-07-29T09:43:39;33.20;52.50
19192;DHT22;9728;48.194;16.346;2023-07-29T09:48:43;33.40;52.50
19192;DHT22;9728;48.194;16.346;2023-07-29T09:53:50;33.60;52.10
19192;DHT22;9728;48.194;16.346;2023-07-29T09:58:56;33.80;51.80
19192;DHT22;9728;48.194;16.346;2023-07-29T10:04:02;34.00;51.70
19192;DHT22;9728;48.194;16.346;2023-07-29T10:09:06;34.20;51.30
19192;DHT22;9728;48.194;16.346;2023-07-29T10:14:11;34.50;51.40
19192;DHT22;9728;48.194;16.346;2023-07-29T10:19:17;34.80;51.00
19192;DHT22;9728;48.194;16.346;2023-07-29T10:24:24;35.00;50.20
19192;DHT22;9728;48.194;16.346;2023-07-29T10:29:32;35.20;49.90
19192;DHT22;9728;48.194;16.346;2023-07-29T10:34:40;35.40;49.80
19192;DHT22;9728;48.194;16.346;2023-07-29T10:39:53;35.60;49.20
19192;DHT22;9728;48.194;16.346;2023-07-29T10:44:56;35.70;48.10
19192;DHT22;9728;48.194;16.346;2023-07-29T10:50:01;35.90;48.80
19192;DHT22;9728;48.194;16.346;2023-07-29T10:55:23;36.10;48.40
19192;DHT22;9728;48.194;16.346;2023-07-29T11:00:30;36.40;47.40
19192;DHT22;9728;48.194;16.346;2023-07-29T11:05:49;36.50;46.80
19192;DHT22;9728;48.194;16.346;2023-07-29T11:11:04;36.60;46.40
19192;DHT22;9728;48.194;16.346;2023-07-29T11:16:10;36.80;46.00
19192;DHT22;9728;48.194;16.346;2023-07-29T11:21:15;36.80;46.40
19192;DHT22;9728;48.194;16.346;2023-07-29T11:26:18;36.90;46.10
19192;DHT22;9728;48.194;16.346;2023-07-29T11:31:22;37.00;46.10
19192;DHT22;9728;48.194;16.346;2023-07-29T11:36:26;37.10;45.90
19192;DHT22;9728;48.194;16.346;2023-07-29T11:41:30;37.10;45.40
19192;DHT22;9728;48.194;16.346;2023-07-29T11:46:36;37.10;45.50
19192;DHT22;9728;48.194;16.346;2023-07-29T11:51:42;37.00;45.50
19192;DHT22;9728;48.194;16.346;2023-07-29T11:56:46;36.90;45.10
19192;DHT22;9728;48.194;16.346;2023-07-29T12:01:49;36.80;45.20
19192;DHT22;9728;48.194;16.346;2023-07-29T12:06:54;36.80;44.90
19192;DHT22;9728;48.194;16.346;2023-07-29T12:11:58;36.70;44.70
19192;DHT22;9728;48.194;16.346;2023-07-29T12:17:03;36.60;44.70
19192;DHT22;9728;48.194;16.346;2023-07-29T12:22:10;36.50;44.90
19192;DHT22;9728;48.194;16.346;2023-07-29T12:27:14;36.50;44.60
19192;DHT22;9728;48.194;16.346;2023-07-29T12:32:19;36.50;44.90
19192;DHT22;9728;48.194;16.346;2023-07-29T12:37:31;36.50;45.00
19192;DHT22;9728;48.194;16.346;2023-07-29T12:42:35;36.50;44.90
19192;DHT22;9728;48.194;16.346;2023-07-29T12:47:38;36.60;45.20
19192;DHT22;9728;48.194;16.346;2023-07-29T12:52:43;36.70;45.20
19192;DHT22;9728;48.194;16.346;2023-07-29T12:57:47;36.80;45.10
19192;DHT22;9728;48.194;16.346;2023-07-29T13:02:51;36.80;44.70
19192;DHT22;9728;48.194;16.346;2023-07-29T13:07:56;36.80;44.50
19192;DHT22;9728;48.194;16.346;2023-07-29T13:12:59;36.80;44.40
19192;DHT22;9728;48.194;16.346;2023-07-29T13:18:02;36.80;44.10
19192;DHT22;9728;48.194;16.346;2023-07-29T13:23:07;36.90;43.70
19192;DHT22;9728;48.194;16.346;2023-07-29T13:28:11;36.90;43.30
19192;DHT22;9728;48.194;16.346;2023-07-29T13:33:15;36.90;43.40
19192;DHT22;9728;48.194;16.346;2023-07-29T13:38:20;36.70;43.40
19192;DHT22;9728;48.194;16.346;2023-07-29T13:43:25;36.70;43.30
19192;DHT22;9728;48.194;16.346;2023-07-29T13:48:28;36.60;43.30
19192;DHT22;9728;48.194;16.346;2023-07-29T13:53:33;36.40;43.20
19192;DHT22;9728;48.194;16.346;2023-07-29T13:58:37;36.40;43.20
19192;DHT22;9728;48.194;16.346;2023-07-29T14:03:41;36.30;43.40
19192;DHT22;9728;48.194;16.346;2023-07-29T14:08:45;36.20;43.60
19192;DHT22;9728;48.194;16.346;2023-07-29T14:13:49;36.10;43.90
19192;DHT22;9728;48.194;16.346;2023-07-29T14:18:53;36.00;44.10
19192;DHT22;9728;48.194;16.346;2023-07-29T14:23:58;35.90;44.20
19192;DHT22;9728;48.194;16.346;2023-07-29T14:29:01;35.90;44.30
19192;DHT22;9728;48.194;16.346;2023-07-29T14:34:05;36.00;44.30
19192;DHT22;9728;48.194;16.346;2023-07-29T14:39:10;36.00;44.30
19192;DHT22;9728;48.194;16.346;2023-07-29T14:44:13;36.00;44.20
19192;DHT22;9728;48.194;16.346;2023-07-29T14:49:16;35.90;44.10
19192;DHT22;9728;48.194;16.346;2023-07-29T14:54:21;35.90;44.10
19192;DHT22;9728;48.194;16.346;2023-07-29T14:59:25;35.80;44.10
19192;DHT22;9728;48.194;16.346;2023-07-29T15:04:29;35.70;44.20
19192;DHT22;9728;48.194;16.346;2023-07-29T15:09:34;35.70;44.30
19192;DHT22;9728;48.194;16.346;2023-07-29T15:14:38;35.60;44.20
19192;DHT22;9728;48.194;16.346;2023-07-29T15:19:41;35.50;44.40
19192;DHT22;9728;48.194;16.346;2023-07-29T15:24:46;35.50;44.50
19192;DHT22;9728;48.194;16.346;2023-07-29T15:29:50;35.40;44.50
19192;DHT22;9728;48.194;16.346;2023-07-29T15:34:54;35.40;44.70
19192;DHT22;9728;48.194;16.346;2023-07-29T15:39:58;35.30;44.80
19192;DHT22;9728;48.194;16.346;2023-07-29T15:45:02;35.30;45.00
19192;DHT22;9728;48.194;16.346;2023-07-29T15:50:06;35.20;45.10
19192;DHT22;9728;48.194;16.346;2023-07-29T15:55:11;35.20;45.30
19192;DHT22;9728;48.194;16.346;2023-07-29T16:00:15;35.10;45.30
19192;DHT22;9728;48.194;16.346;2023-07-29T16:05:18;35.10;45.50
19192;DHT22;9728;48.194;16.346;2023-07-29T16:10:23;35.10;45.50
19192;DHT22;9728;48.194;16.346;2023-07-29T16:15:27;35.00;45.60
19192;DHT22;9728;48.194;16.346;2023-07-29T16:20:30;35.00;45.80
19192;DHT22;9728;48.194;16.346;2023-07-29T16:25:35;34.90;45.90
19192;DHT22;9728;48.194;16.346;2023-07-29T16:30:38;34.80;45.90
19192;DHT22;9728;48.194;16.346;2023-07-29T16:35:42;34.80;46.00
19192;DHT22;9728;48.194;16.346;2023-07-29T16:40:47;34.70;46.00
19192;DHT22;9728;48.194;16.346;2023-07-29T16:46:10;34.60;46.10
19192;DHT22;9728;48.194;16.346;2023-07-29T16:51:14;34.50;46.10
19192;DHT22;9728;48.194;16.346;2023-07-29T16:56:19;34.50;46.20
19192;DHT22;9728;48.194;16.346;2023-07-29T17:01:22;34.30;46.30
19192;DHT22;9728;48.194;16.346;2023-07-29T17:06:26;34.20;46.40
19192;DHT22;9728;48.194;16.346;2023-07-29T17:11:31;34.10;46.40
19192;DHT22;9728;48.194;16.346;2023-07-29T17:16:35;34.00;46.40
19192;DHT22;9728;48.194;16.346;2023-07-29T17:21:38;34.00;46.20
19192;DHT22;9728;48.194;16.346;2023-07-29T17:26:43;33.90;46.10
19192;DHT22;9728;48.194;16.346;2023-07-29T17:31:47;33.80;46.00
19192;DHT22;9728;48.194;16.346;2023-07-29T17:36:51;33.70;46.10
19192;DHT22;9728;48.194;16.346;2023-07-29T17:41:56;33.60;46.10
19192;DHT22;9728;48.194;16.346;2023-07-29T17:47:00;33.50;46.20
19192;DHT22;9728;48.194;16.346;2023-07-29T17:52:04;33.40;46.30
19192;DHT22;9728;48.194;16.346;2023-07-29T17:57:12;33.30;46.40
19192;DHT22;9728;48.194;16.346;2023-07-29T18:02:16;33.30;46.50
19192;DHT22;9728;48.194;16.346;2023-07-29T18:07:19;33.20;46.50
19192;DHT22;9728;48.194;16.346;2023-07-29T18:12:24;33.20;46.50
19192;DHT22;9728;48.194;16.346;2023-07-29T18:17:27;33.10;46.50
19192;DHT22;9728;48.194;16.346;2023-07-29T18:22:31;33.10;46.50
19192;DHT22;9728;48.194;16.346;2023-07-29T18:27:36;33.00;46.40
19192;DHT22;9728;48.194;16.346;2023-07-29T18:32:40;33.00;46.40
19192;DHT22;9728;48.194;16.346;2023-07-29T18:37:44;32.90;46.40
19192;DHT22;9728;48.194;16.346;2023-07-29T18:42:49;32.80;46.40
19192;DHT22;9728;48.194;16.346;2023-07-29T18:47:53;32.80;46.50
19192;DHT22;9728;48.194;16.346;2023-07-29T18:52:57;32.70;46.50
19192;DHT22;9728;48.194;16.346;2023-07-29T18:58:03;32.60;46.60
19192;DHT22;9728;48.194;16.346;2023-07-29T19:03:08;32.60;46.80
19192;DHT22;9728;48.194;16.346;2023-07-29T19:08:13;32.50;46.80
19192;DHT22;9728;48.194;16.346;2023-07-29T19:13:19;32.40;46.90
19192;DHT22;9728;48.194;16.346;2023-07-29T19:18:24;32.40;47.10
19192;DHT22;9728;48.194;16.346;2023-07-29T19:23:30;32.30;47.20
19192;DHT22;9728;48.194;16.346;2023-07-29T19:28:35;32.30;47.30
19192;DHT22;9728;48.194;16.346;2023-07-29T19:33:40;32.20;47.50
19192;DHT22;9728;48.194;16.346;2023-07-29T19:38:46;32.20;47.60
19192;DHT22;9728;48.194;16.346;2023-07-29T19:43:51;32.10;47.70
19192;DHT22;9728;48.194;16.346;2023-07-29T19:49:02;32.10;48.00
19192;DHT22;9728;48.194;16.346;2023-07-29T19:54:07;32.10;48.00
19192;DHT22;9728;48.194;16.346;2023-07-29T19:59:13;32.00;48.10
19192;DHT22;9728;48.194;16.346;2023-07-29T20:04:18;31.90;48.20
19192;DHT22;9728;48.194;16.346;2023-07-29T20:09:22;31.90;48.30
19192;DHT22;9728;48.194;16.346;2023-07-29T20:14:27;31.90;48.40
19192;DHT22;9728;48.194;16.346;2023-07-29T20:19:32;31.80;48.50
19192;DHT22;9728;48.194;16.346;2023-07-29T20:24:37;31.70;48.50
19192;DHT22;9728;48.194;16.346;2023-07-29T20:29:42;31.70;48.70
19192;DHT22;9728;48.194;16.346;2023-07-29T20:34:46;31.60;48.90
19192;DHT22;9728;48.194;16.346;2023-07-29T20:39:50;31.50;48.90
19192;DHT22;9728;48.194;16.346;2023-07-29T20:44:57;31.40;49.10
19192;DHT22;9728;48.194;16.346;2023-07-29T20:50:02;31.40;49.40
19192;DHT22;9728;48.194;16.346;2023-07-29T20:55:06;31.30;49.40
19192;DHT22;9728;48.194;16.346;2023-07-29T21:00:12;31.20;49.50
19192;DHT22;9728;48.194;16.346;2023-07-29T21:05:16;31.10;49.70
19192;DHT22;9728;48.194;16.346;2023-07-29T21:10:19;31.10;49.80
19192;DHT22;9728;48.194;16.346;2023-07-29T21:15:24;31.00;49.90
19192;DHT22;9728;48.194;16.346;2023-07-29T21:20:28;31.00;50.10
19192;DHT22;9728;48.194;16.346;2023-07-29T21:25:32;31.00;50.80
19192;DHT22;9728;48.194;16.346;2023-07-29T21:30:37;30.90;50.30
19192;DHT22;9728;48.194;16.346;2023-07-29T21:35:41;30.90;50.50
19192;DHT22;9728;48.194;16.346;2023-07-29T21:40:47;30.90;50.60
19192;DHT22;9728;48.194;16.346;2023-07-29T21:45:53;30.80;50.80
19192;DHT22;9728;48.194;16.346;2023-07-29T21:50:56;30.80;50.90
19192;DHT22;9728;48.194;16.346;2023-07-29T21:56:00;30.70;50.90
19192;DHT22;9728;48.194;16.346;2023-07-29T22:01:05;30.70;51.00
19192;DHT22;9728;48.194;16.346;2023-07-29T22:06:09;30.70;51.10
19192;DHT22;9728;48.194;16.346;2023-07-29T22:11:12;30.60;51.10
19192;DHT22;9728;48.194;16.346;2023-07-29T22:16:17;30.60;51.20
19192;DHT22;9728;48.194;16.346;2023-07-29T22:21:21;30.60;51.40
19192;DHT22;9728;48.194;16.346;2023-07-29T22:26:24;30.60;51.40
19192;DHT22;9728;48.194;16.346;2023-07-29T22:31:29;30.60;51.40
19192;DHT22;9728;48.194;16.346;2023-07-29T22:36:33;30.60;51.60
19192;DHT22;9728;48.194;16.346;2023-07-29T22:41:36;30.60;51.50
19192;DHT22;9728;48.194;16.346;2023-07-29T22:46:42;30.60;51.70
19192;DHT22;9728;48.194;16.346;2023-07-29T22:51:48;30.70;51.70
19192;DHT22;9728;48.194;16.346;2023-07-29T22:56:51;30.70;51.70
19192;DHT22;9728;48.194;16.346;2023-07-29T23:01:56;30.70;51.70
19192;DHT22;9728;48.194;16.346;2023-07-29T23:07:00;30.70;51.90
19192;DHT22;9728;48.194;16.346;2023-07-29T23:12:04;30.70;52.00
19192;DHT22;9728;48.194;16.346;2023-07-29T23:17:09;30.70;52.00
19192;DHT22;9728;48.194;16.346;2023-07-29T23:22:12;30.60;52.10
19192;DHT22;9728;48.194;16.346;2023-07-29T23:27:15;30.60;52.10
19192;DHT22;9728;48.194;16.346;2023-07-29T23:32:20;30.60;52.20
19192;DHT22;9728;48.194;16.346;2023-07-29T23:37:24;30.60;52.30
19192;DHT22;9728;48.194;16.346;2023-07-29T23:42:28;30.60;52.30
19192;DHT22;9728;48.194;16.346;2023-07-29T23:47:33;30.60;52.40
19192;DHT22;9728;48.194;16.346;2023-07-29T23:52:36;30.60;52.50
19192;DHT22;9728;48.194;16.346;2023-07-29T23:57:39;30.60;52.50
